createdAt,value
2018-07-20T00:01:40.315Z,7.40
2018-07-20T00:04:09.009Z,6.87
2018-07-20T00:06:37.661Z,6.50
2018-07-20T00:09:08.277Z,6.70
2018-07-20T00:11:37.127Z,6.53
2018-07-20T00:14:05.907Z,8.17
2018-07-20T00:16:34.640Z,7.03
2018-07-20T00:19:03.360Z,7.17
2018-07-20T00:21:32.214Z,7.97
2018-07-20T00:24:00.995Z,7.43
2018-07-20T00:26:29.710Z,7.13
2018-07-20T00:28:58.361Z,7.47
2018-07-20T00:31:27.095Z,7.57
2018-07-20T00:33:56.783Z,8.07
2018-07-20T00:36:25.538Z,7.80
2018-07-20T00:38:54.282Z,7.10
2018-07-20T00:41:23.000Z,7.83
2018-07-20T00:43:51.680Z,7.43
2018-07-20T00:46:20.396Z,7.97
2018-07-20T00:48:49.187Z,7.63
2018-07-20T00:51:17.848Z,7.37
2018-07-20T00:53:46.609Z,6.97
2018-07-20T00:56:15.415Z,7.90
2018-07-20T00:58:44.286Z,8.43
2018-07-20T01:01:13.047Z,7.80
2018-07-20T01:03:41.820Z,8.70
2018-07-20T01:06:10.559Z,7.53
2018-07-20T01:08:39.290Z,7.80
2018-07-20T01:11:08.108Z,7.90
2018-07-20T01:13:36.965Z,8.50
2018-07-20T01:16:05.705Z,8.27
2018-07-20T01:18:35.529Z,8.03
2018-07-20T01:21:04.415Z,8.23
2018-07-20T01:23:33.080Z,7.93
2018-07-20T01:26:02.485Z,7.50
2018-07-20T01:28:31.178Z,8.93
2018-07-20T01:31:00.001Z,8.53
2018-07-20T01:33:28.774Z,7.80
2018-07-20T01:35:57.412Z,8.03
2018-07-20T01:38:26.125Z,8.60
2018-07-20T01:40:54.884Z,8.27
2018-07-20T01:43:23.533Z,8.90
2018-07-20T01:45:52.223Z,9.50
2018-07-20T01:48:21.053Z,10.07
2018-07-20T01:50:49.739Z,9.50
2018-07-20T01:53:18.413Z,8.77
2018-07-20T01:55:47.908Z,8.40
2018-07-20T01:58:16.633Z,8.47
2018-07-20T02:00:45.337Z,8.77
2018-07-20T02:03:14.064Z,7.67
2018-07-20T02:05:42.845Z,9.20
2018-07-20T02:08:11.555Z,9.47
2018-07-20T02:10:40.369Z,8.40
2018-07-20T02:13:09.161Z,9.60
2018-07-20T02:15:37.971Z,10.30
2018-07-20T02:18:06.946Z,10.60
2018-07-20T02:20:35.731Z,11.13
2018-07-20T02:23:04.580Z,10.60
2018-07-20T02:25:33.378Z,11.73
2018-07-20T02:28:02.045Z,11.30
2018-07-20T02:30:31.739Z,11.10
2018-07-20T02:33:00.505Z,12.17
2018-07-20T02:35:29.285Z,11.00
2018-07-20T02:37:58.077Z,10.67
2018-07-20T02:40:27.018Z,11.30
2018-07-20T02:42:55.967Z,10.60
2018-07-20T02:45:24.834Z,10.70
2018-07-20T02:47:53.597Z,11.67
2018-07-20T02:50:22.269Z,9.93
2018-07-20T02:52:51.050Z,11.37
2018-07-20T02:55:20.035Z,10.40
2018-07-20T02:57:48.797Z,10.77
2018-07-20T03:00:17.776Z,10.80
2018-07-20T03:02:46.507Z,11.13
2018-07-20T03:05:15.273Z,11.00
2018-07-20T03:07:44.013Z,11.27
2018-07-20T03:10:12.744Z,11.73
2018-07-20T03:12:41.455Z,11.47
2018-07-20T03:15:10.242Z,10.57
2018-07-20T03:17:38.963Z,10.90
2018-07-20T03:20:07.683Z,10.60
2018-07-20T03:22:36.387Z,11.60
2018-07-20T03:25:06.134Z,10.77
2018-07-20T03:27:34.813Z,10.73
2018-07-20T03:30:03.440Z,11.13
2018-07-20T03:32:32.150Z,11.77
2018-07-20T03:35:00.889Z,10.27
2018-07-20T03:37:29.501Z,10.60
2018-07-20T03:39:58.245Z,10.77
2018-07-20T03:42:27.026Z,10.07
2018-07-20T03:44:55.809Z,10.50
2018-07-20T03:47:24.478Z,10.53
2018-07-20T03:49:53.156Z,10.47
2018-07-20T03:52:21.790Z,8.70
2018-07-20T03:54:50.531Z,9.37
2018-07-20T03:57:19.303Z,9.30
2018-07-20T03:59:48.035Z,9.97
2018-07-20T04:02:16.646Z,9.50
2018-07-20T04:04:46.206Z,8.70
2018-07-20T04:07:15.629Z,8.53
2018-07-20T04:09:44.319Z,8.73
2018-07-20T04:12:12.975Z,7.10
2018-07-20T04:14:41.681Z,7.60
2018-07-20T04:17:10.487Z,7.03
2018-07-20T04:19:39.111Z,7.30
2018-07-20T04:22:07.787Z,7.50
2018-07-20T04:24:36.395Z,7.40
2018-07-20T04:27:05.096Z,7.73
2018-07-20T04:29:33.909Z,5.80
2018-07-20T04:32:02.665Z,7.27
2018-07-20T04:34:31.425Z,6.87
2018-07-20T04:37:00.167Z,7.00
2018-07-20T04:39:28.780Z,6.37
2018-07-20T04:41:57.624Z,7.50
2018-07-20T04:44:26.430Z,7.60
2018-07-20T04:46:55.232Z,8.03
2018-07-20T04:49:24.138Z,7.00
2018-07-20T04:51:52.786Z,7.03
2018-07-20T04:54:21.463Z,7.80
2018-07-20T04:56:51.969Z,8.23
2018-07-20T04:59:20.679Z,8.43
2018-07-20T05:01:50.528Z,8.27
2018-07-20T05:04:19.226Z,7.90
2018-07-20T05:06:47.868Z,7.97
2018-07-20T05:09:17.552Z,8.07
2018-07-20T05:11:46.345Z,7.83
2018-07-20T05:14:15.645Z,7.40
2018-07-20T05:16:44.391Z,7.50
2018-07-20T05:19:13.260Z,8.53
2018-07-20T05:21:41.988Z,8.00
2018-07-20T05:24:10.804Z,7.90
2018-07-20T05:26:39.450Z,7.40
2018-07-20T05:29:08.140Z,7.13
2018-07-20T05:31:36.966Z,7.63
2018-07-20T05:34:05.824Z,6.70
2018-07-20T05:36:34.633Z,7.17
2018-07-20T05:39:03.675Z,6.83
2018-07-20T05:41:32.404Z,6.90
2018-07-20T05:44:01.607Z,6.47
2018-07-20T05:46:30.413Z,7.10
2018-07-20T05:49:00.011Z,5.80
2018-07-20T05:51:28.775Z,6.03
2018-07-20T05:53:57.738Z,6.57
2018-07-20T05:56:26.428Z,5.83
2018-07-20T05:58:55.250Z,6.00
2018-07-20T06:01:24.052Z,6.30
2018-07-20T06:03:52.904Z,5.90
2018-07-20T06:06:21.597Z,6.37
2018-07-20T06:08:50.332Z,5.40
2018-07-20T06:11:19.103Z,5.80
2018-07-20T06:13:48.591Z,4.93
2018-07-20T06:16:18.166Z,5.53
2018-07-20T06:18:46.886Z,5.03
2018-07-20T06:21:15.653Z,5.33
2018-07-20T06:23:44.428Z,5.10
2018-07-20T06:26:13.153Z,5.23
2018-07-20T06:28:41.811Z,4.80
2018-07-20T06:31:10.565Z,5.53
2018-07-20T06:33:39.200Z,6.17
2018-07-20T06:36:07.922Z,5.30
2018-07-20T06:38:36.598Z,5.37
2018-07-20T06:41:05.663Z,4.77
2018-07-20T06:43:34.455Z,4.80
2018-07-20T06:46:03.060Z,4.87
2018-07-20T06:48:31.620Z,4.73
2018-07-20T06:51:00.196Z,4.70
2018-07-20T06:53:28.726Z,4.80
2018-07-20T06:55:57.419Z,4.53
2018-07-20T06:58:26.969Z,4.77
2018-07-20T07:00:55.758Z,4.63
2018-07-20T07:03:24.406Z,4.60
2018-07-20T07:05:53.056Z,4.43
2018-07-20T07:08:21.946Z,4.20
2018-07-20T07:10:50.837Z,4.43
2018-07-20T07:13:19.819Z,4.37
2018-07-20T07:15:48.557Z,4.25
2018-07-20T07:18:17.468Z,4.30
2018-07-20T07:20:46.242Z,3.90
2018-07-20T07:23:14.987Z,4.65
2018-07-20T07:25:43.806Z,4.80
2018-07-20T07:28:12.605Z,4.17
2018-07-20T07:30:41.349Z,4.47
2018-07-20T07:33:10.125Z,3.90
2018-07-20T07:35:38.876Z,3.58
2018-07-20T07:38:07.606Z,3.90
2018-07-20T07:40:36.412Z,4.00
2018-07-20T07:43:05.221Z,3.98
2018-07-20T07:45:34.204Z,4.10
2018-07-20T07:48:02.976Z,3.30
2018-07-20T07:50:31.783Z,4.17
2018-07-20T07:53:00.620Z,3.90
2018-07-20T07:55:29.442Z,3.75
2018-07-20T07:57:59.220Z,4.42
2018-07-20T08:00:27.937Z,3.98
2018-07-20T08:02:56.747Z,4.10
2018-07-20T08:05:25.650Z,3.77
2018-07-20T08:07:54.852Z,4.30
2018-07-20T08:10:23.542Z,4.03
2018-07-20T08:12:52.430Z,3.83
2018-07-20T08:15:21.270Z,3.98
2018-07-20T08:17:49.975Z,3.98
2018-07-20T08:20:18.708Z,3.87
2018-07-20T08:22:47.525Z,4.55
2018-07-20T08:25:16.416Z,3.95
2018-07-20T08:27:45.021Z,3.70
2018-07-20T08:30:13.936Z,4.78
2018-07-20T08:32:42.640Z,4.35
2018-07-20T08:35:11.452Z,3.95
2018-07-20T08:37:40.248Z,3.72
2018-07-20T08:40:09.007Z,3.55
2018-07-20T08:42:37.856Z,3.83
2018-07-20T08:45:06.884Z,4.17
2018-07-20T08:47:35.730Z,3.77
2018-07-20T08:50:04.930Z,3.40
2018-07-20T08:52:34.094Z,3.85
2018-07-20T08:55:02.855Z,4.10
2018-07-20T08:57:32.361Z,3.80
2018-07-20T09:00:01.334Z,3.87
2018-07-20T09:02:30.259Z,3.70
2018-07-20T09:04:58.973Z,4.03
2018-07-20T09:07:27.674Z,4.03
2018-07-20T09:09:56.628Z,4.05
2018-07-20T09:12:25.562Z,3.98
2018-07-20T09:14:54.320Z,3.90
2018-07-20T09:17:23.102Z,4.00
2018-07-20T09:19:51.758Z,3.72
2018-07-20T09:22:20.588Z,4.12
2018-07-20T09:24:49.419Z,3.90
2018-07-20T09:27:18.403Z,4.12
2018-07-20T09:29:47.853Z,3.70
2018-07-20T09:32:16.668Z,3.55
2018-07-20T09:34:45.557Z,3.60
2018-07-20T09:37:14.493Z,3.33
2018-07-20T09:39:43.215Z,3.72
2018-07-20T09:42:12.198Z,3.80
2018-07-20T09:44:41.015Z,4.10
2018-07-20T09:47:09.753Z,3.95
2018-07-20T09:49:38.472Z,3.55
2018-07-20T09:52:06.988Z,3.58
2018-07-20T09:54:35.614Z,3.40
2018-07-20T09:57:04.149Z,3.40
2018-07-20T09:59:32.813Z,3.55
2018-07-20T10:02:01.353Z,3.72
2018-07-20T10:04:29.935Z,3.90
2018-07-20T10:06:58.498Z,3.58
2018-07-20T10:09:27.028Z,3.37
2018-07-20T10:11:55.644Z,3.22
2018-07-20T10:14:24.296Z,3.40
2018-07-20T10:16:52.891Z,3.20
2018-07-20T10:19:21.505Z,2.90
2018-07-20T10:21:50.038Z,3.50
2018-07-20T10:24:18.607Z,3.40
2018-07-20T10:26:47.131Z,3.15
2018-07-20T10:29:15.706Z,3.15
2018-07-20T10:31:44.241Z,3.33
2018-07-20T10:34:12.817Z,3.80
2018-07-20T10:36:41.414Z,4.10
2018-07-20T10:39:10.699Z,3.60
2018-07-20T10:41:39.223Z,3.80
2018-07-20T10:44:07.826Z,3.17
2018-07-20T10:46:36.573Z,3.12
2018-07-20T10:49:05.435Z,3.33
2018-07-20T10:51:34.016Z,3.08
2018-07-20T10:54:02.580Z,2.90
2018-07-20T10:56:31.147Z,3.05
2018-07-20T10:58:59.662Z,3.10
2018-07-20T11:01:28.291Z,2.70
2018-07-20T11:03:56.776Z,3.10
2018-07-20T11:06:25.328Z,3.25
2018-07-20T11:08:53.875Z,3.12
2018-07-20T11:11:22.429Z,3.52
2018-07-20T11:13:51.002Z,2.65
2018-07-20T11:16:19.572Z,2.90
2018-07-20T11:18:48.119Z,2.80
2018-07-20T11:21:16.710Z,3.33
2018-07-20T11:23:45.242Z,2.80
2018-07-20T11:26:13.793Z,2.70
2018-07-20T11:28:42.428Z,3.12
2018-07-20T11:31:11.003Z,2.75
2018-07-20T11:33:39.534Z,3.33
2018-07-20T11:36:08.091Z,2.80
2018-07-20T11:38:36.629Z,3.33
2018-07-20T11:41:05.188Z,2.98
2018-07-20T11:43:33.755Z,2.90
2018-07-20T11:46:02.290Z,3.52
2018-07-20T11:48:30.877Z,3.02
2018-07-20T11:50:59.471Z,2.70
2018-07-20T11:53:28.041Z,3.35
2018-07-20T11:55:56.580Z,3.20
2018-07-20T11:58:25.155Z,3.02
2018-07-20T12:00:53.689Z,3.30
2018-07-20T12:03:22.244Z,3.30
2018-07-20T12:05:50.795Z,3.13
2018-07-20T12:08:19.366Z,3.00
2018-07-20T12:10:48.488Z,3.50
2018-07-20T12:13:17.054Z,3.40
2018-07-20T12:15:45.609Z,3.20
2018-07-20T12:18:14.284Z,3.47
2018-07-20T12:20:42.857Z,2.97
2018-07-20T12:23:11.420Z,2.73
2018-07-20T12:25:39.960Z,3.67
2018-07-20T12:28:08.574Z,2.80
2018-07-20T12:30:37.094Z,3.07
2018-07-20T12:33:05.663Z,3.00
2018-07-20T12:35:34.237Z,3.60
2018-07-20T12:38:02.794Z,3.30
2018-07-20T12:40:31.392Z,3.67
2018-07-20T12:42:59.936Z,3.23
2018-07-20T12:45:28.476Z,3.40
2018-07-20T12:47:57.039Z,3.30
2018-07-20T12:50:25.607Z,3.33
2018-07-20T12:52:54.262Z,3.30
2018-07-20T12:55:22.833Z,3.10
2018-07-20T12:57:51.367Z,3.57
2018-07-20T13:00:19.916Z,3.20
2018-07-20T13:02:48.475Z,3.33
2018-07-20T13:05:17.029Z,3.47
2018-07-20T13:07:45.559Z,3.80
2018-07-20T13:10:14.153Z,3.60
2018-07-20T13:12:42.681Z,3.87
2018-07-20T13:15:11.262Z,3.70
2018-07-20T13:17:39.808Z,3.47
2018-07-20T13:20:08.390Z,3.30
2018-07-20T13:22:36.961Z,3.37
2018-07-20T13:25:05.556Z,3.50
2018-07-20T13:27:34.092Z,3.43
2018-07-20T13:30:02.641Z,3.60
2018-07-20T13:32:31.226Z,3.83
2018-07-20T13:34:59.994Z,3.60
2018-07-20T13:37:28.568Z,3.73
2018-07-20T13:39:57.123Z,3.60
2018-07-20T13:42:25.737Z,3.90
2018-07-20T13:44:54.321Z,4.20
2018-07-20T13:47:22.877Z,3.73
2018-07-20T13:49:51.449Z,3.23
2018-07-20T13:52:20.028Z,3.50
2018-07-20T13:54:48.586Z,3.50
2018-07-20T13:57:17.215Z,3.57
2018-07-20T13:59:45.758Z,3.33
2018-07-20T14:02:14.315Z,3.23
2018-07-20T14:04:42.858Z,3.30
2018-07-20T14:07:12.127Z,3.87
2018-07-20T14:09:40.674Z,3.40
2018-07-20T14:12:09.277Z,3.63
2018-07-20T14:14:37.829Z,3.53
2018-07-20T14:17:06.482Z,3.70
2018-07-20T14:19:35.014Z,3.70
2018-07-20T14:22:03.595Z,4.00
2018-07-20T14:24:32.157Z,3.87
2018-07-20T14:27:00.713Z,3.40
2018-07-20T14:29:29.326Z,3.33
2018-07-20T14:31:57.893Z,3.17
2018-07-20T14:34:26.581Z,3.60
2018-07-20T14:36:55.116Z,3.37
2018-07-20T14:39:23.675Z,3.40
2018-07-20T14:41:52.203Z,3.43
2018-07-20T14:44:20.775Z,3.30
2018-07-20T14:46:49.389Z,3.50
2018-07-20T14:49:17.938Z,3.07
2018-07-20T14:51:46.469Z,3.63
2018-07-20T14:54:15.085Z,3.77
2018-07-20T14:56:43.625Z,3.80
2018-07-20T14:59:12.230Z,3.90
2018-07-20T15:01:40.785Z,3.63
2018-07-20T15:04:09.381Z,3.80
2018-07-20T15:06:37.991Z,3.70
2018-07-20T15:09:09.541Z,4.00
2018-07-20T15:11:38.994Z,3.57
2018-07-20T15:14:07.782Z,3.97
2018-07-20T15:16:36.505Z,4.03
2018-07-20T15:19:05.473Z,3.17
2018-07-20T15:21:34.301Z,3.80
2018-07-20T15:24:03.477Z,3.87
2018-07-20T15:26:32.498Z,3.60
2018-07-20T15:29:01.537Z,3.60
2018-07-20T15:31:30.454Z,4.23
2018-07-20T15:33:59.189Z,3.80
2018-07-20T15:36:28.012Z,3.77
2018-07-20T15:38:56.733Z,3.73
2018-07-20T15:41:25.461Z,3.63
2018-07-20T15:43:54.219Z,3.70
2018-07-20T15:46:24.049Z,3.97
2018-07-20T15:48:52.699Z,4.17
2018-07-20T15:51:31.577Z,3.93
2018-07-20T15:53:49.873Z,3.70
2018-07-20T15:56:19.146Z,4.33
2018-07-20T15:58:47.700Z,3.90
2018-07-20T16:01:16.274Z,3.70
2018-07-20T16:03:44.796Z,4.10
2018-07-20T16:06:13.407Z,3.73
2018-07-20T16:08:42.090Z,3.53
2018-07-20T16:11:10.644Z,3.80
2018-07-20T16:13:39.212Z,4.00
2018-07-20T16:16:07.771Z,3.80
2018-07-20T16:18:36.305Z,4.10
2018-07-20T16:21:04.872Z,3.97
2018-07-20T16:23:33.433Z,3.63
2018-07-20T16:26:02.054Z,4.00
2018-07-20T16:28:30.626Z,4.20
2018-07-20T16:30:59.160Z,4.23
2018-07-20T16:33:27.791Z,4.20
2018-07-20T16:35:56.341Z,3.73
2018-07-20T16:38:24.893Z,3.70
2018-07-20T16:40:53.484Z,3.73
2018-07-20T16:43:22.091Z,3.90
2018-07-20T16:45:50.663Z,3.77
2018-07-20T16:48:19.209Z,3.90
2018-07-20T16:50:47.745Z,3.93
2018-07-20T16:53:16.436Z,3.77
2018-07-20T16:55:44.973Z,4.10
2018-07-20T16:58:13.581Z,4.27
2018-07-20T17:00:42.068Z,4.50
2018-07-20T17:03:10.625Z,3.80
2018-07-20T17:05:39.182Z,4.00
2018-07-20T17:08:07.736Z,4.20
2018-07-20T17:10:36.289Z,3.90
2018-07-20T17:13:04.891Z,3.77
2018-07-20T17:15:33.687Z,4.03
2018-07-20T17:18:02.224Z,4.20
2018-07-20T17:20:30.802Z,4.20
2018-07-20T17:22:59.333Z,3.90
2018-07-20T17:25:27.955Z,3.87
2018-07-20T17:27:56.566Z,4.03
2018-07-20T17:30:25.118Z,3.70
2018-07-20T17:32:53.652Z,4.03
2018-07-20T17:35:22.230Z,3.90
2018-07-20T17:37:50.752Z,4.10
2018-07-20T17:40:19.337Z,4.60
2018-07-20T17:42:47.876Z,4.97
2018-07-20T17:45:16.514Z,5.10
2018-07-20T17:47:45.029Z,5.80
2018-07-20T17:50:13.553Z,5.90
2018-07-20T17:52:42.094Z,4.67
2018-07-20T17:55:10.636Z,5.10
2018-07-20T17:57:39.176Z,4.07
2018-07-20T18:00:07.802Z,4.87
2018-07-20T18:02:36.404Z,4.60
2018-07-20T18:05:05.169Z,4.43
2018-07-20T18:07:33.713Z,4.50
2018-07-20T18:10:02.227Z,4.37
2018-07-20T18:12:30.789Z,4.50
2018-07-20T18:14:59.298Z,4.43
2018-07-20T18:17:27.843Z,4.60
2018-07-20T18:19:56.377Z,5.17
2018-07-20T18:22:24.915Z,5.00
2018-07-20T18:24:53.477Z,5.53
2018-07-20T18:27:22.117Z,5.17
2018-07-20T18:29:50.575Z,7.37
2018-07-20T18:32:19.164Z,5.10
2018-07-20T18:34:47.735Z,4.67
2018-07-20T18:37:16.300Z,4.70
2018-07-20T18:39:44.834Z,4.70
2018-07-20T18:42:13.417Z,4.67
2018-07-20T18:44:41.960Z,4.83
2018-07-20T18:47:10.537Z,4.63
2018-07-20T18:49:39.361Z,4.53
2018-07-20T18:52:08.169Z,4.30
2018-07-20T18:54:36.813Z,4.50
2018-07-20T18:57:05.625Z,4.10
2018-07-20T18:59:34.483Z,4.77
2018-07-20T19:02:03.150Z,4.60
2018-07-20T19:04:31.806Z,4.20
2018-07-20T19:07:00.657Z,5.37
2018-07-20T19:09:29.485Z,4.33
2018-07-20T19:11:58.198Z,5.30
2018-07-20T19:14:26.882Z,5.87
2018-07-20T19:16:55.576Z,5.10
2018-07-20T19:19:24.444Z,5.23
2018-07-20T19:21:53.312Z,5.83
2018-07-20T19:24:22.026Z,5.67
2018-07-20T19:26:50.640Z,5.77
2018-07-20T19:29:19.465Z,5.60
2018-07-20T19:31:48.234Z,5.40
2018-07-20T19:34:16.909Z,6.50
2018-07-20T19:36:45.879Z,5.83
2018-07-20T19:39:14.721Z,5.43
2018-07-20T19:41:43.566Z,5.37
2018-07-20T19:44:12.300Z,5.33
2018-07-20T19:46:41.127Z,6.57
2018-07-20T19:49:09.976Z,6.10
2018-07-20T19:51:38.693Z,7.10
2018-07-20T19:54:07.488Z,6.07
2018-07-20T19:56:36.246Z,5.87
2018-07-20T19:59:05.240Z,6.53
2018-07-20T20:01:34.025Z,5.83
2018-07-20T20:04:02.796Z,5.63
2018-07-20T20:06:31.549Z,5.80
2018-07-20T20:09:00.384Z,9.03
2018-07-20T20:11:29.271Z,6.37
2018-07-20T20:13:58.172Z,6.10
2018-07-20T20:16:26.979Z,6.03
2018-07-20T20:18:55.733Z,6.30
2018-07-20T20:21:25.375Z,5.70
2018-07-20T20:23:54.850Z,6.83
2018-07-20T20:26:24.384Z,7.10
2018-07-20T20:28:53.215Z,7.83
2018-07-20T20:31:22.509Z,9.60
2018-07-20T20:33:51.327Z,9.87
2018-07-20T20:36:20.174Z,8.93
2018-07-20T20:38:49.097Z,8.83
2018-07-20T20:41:18.148Z,8.73
2018-07-20T20:43:46.860Z,8.20
2018-07-20T20:46:16.689Z,8.30
2018-07-20T20:48:45.406Z,8.03
2018-07-20T20:51:14.365Z,9.20
2018-07-20T20:53:43.278Z,8.47
2018-07-20T20:56:12.182Z,7.77
2018-07-20T20:58:41.314Z,8.17
2018-07-20T21:01:10.102Z,7.87
2018-07-20T21:03:38.966Z,7.47
2018-07-20T21:06:07.807Z,8.50
2018-07-20T21:08:36.643Z,7.93
2018-07-20T21:11:05.584Z,8.30
2018-07-20T21:13:34.400Z,7.40
2018-07-20T21:16:03.206Z,6.77
2018-07-20T21:18:32.097Z,6.80
2018-07-20T21:21:00.767Z,7.37
2018-07-20T21:23:29.612Z,7.07
2018-07-20T21:25:58.375Z,7.10
2018-07-20T21:28:27.117Z,7.30
2018-07-20T21:30:56.096Z,7.50
2018-07-20T21:33:25.043Z,7.20
2018-07-20T21:35:53.755Z,7.63
2018-07-20T21:38:23.646Z,7.43
2018-07-20T21:40:52.405Z,7.93
2018-07-20T21:43:21.127Z,7.33
2018-07-20T21:45:49.829Z,8.10
2018-07-20T21:48:18.509Z,7.87
2018-07-20T21:50:47.202Z,7.67
2018-07-20T21:53:16.238Z,7.23
2018-07-20T21:55:45.139Z,7.60
2018-07-20T21:58:14.049Z,7.37
2018-07-20T22:00:42.943Z,7.53
2018-07-20T22:03:11.686Z,7.80
2018-07-20T22:05:40.602Z,7.20
2018-07-20T22:08:10.084Z,7.30
2018-07-20T22:10:39.035Z,7.13
2018-07-20T22:13:07.792Z,7.40
2018-07-20T22:15:36.528Z,6.93
2018-07-20T22:18:04.144Z,6.97
2018-07-20T22:20:33.028Z,7.53
2018-07-20T22:23:01.807Z,6.80
2018-07-20T22:25:32.112Z,6.77
2018-07-20T22:28:00.879Z,6.70
2018-07-20T22:30:29.827Z,7.00
2018-07-20T22:32:58.639Z,6.87
2018-07-20T22:35:28.405Z,6.73
2018-07-20T22:37:57.096Z,7.20
2018-07-20T22:40:25.974Z,7.10
2018-07-20T22:42:54.728Z,6.73
2018-07-20T22:45:23.673Z,6.73
2018-07-20T22:47:52.701Z,6.87
2018-07-20T22:50:21.391Z,6.67
2018-07-20T22:52:49.067Z,6.23
2018-07-20T22:55:17.827Z,5.93
2018-07-20T22:57:46.680Z,6.60
2018-07-20T23:00:15.392Z,6.40
2018-07-20T23:02:44.237Z,6.00
2018-07-20T23:05:12.920Z,5.20
2018-07-20T23:07:41.632Z,4.80
2018-07-20T23:10:11.623Z,4.60
2018-07-20T23:12:40.336Z,4.40
2018-07-20T23:15:09.085Z,4.70
2018-07-20T23:17:37.760Z,4.40
2018-07-20T23:20:07.416Z,5.30
2018-07-20T23:22:36.215Z,4.83
2018-07-20T23:25:04.980Z,5.00
2018-07-20T23:27:33.601Z,4.90
2018-07-20T23:30:02.395Z,4.70
2018-07-20T23:32:31.206Z,5.33
2018-07-20T23:34:59.868Z,5.50
2018-07-20T23:37:28.514Z,4.77
2018-07-20T23:39:57.291Z,5.10
2018-07-20T23:42:26.968Z,5.20
2018-07-20T23:44:55.630Z,5.70
2018-07-20T23:47:24.387Z,5.77
2018-07-20T23:49:53.270Z,5.50
2018-07-20T23:52:21.928Z,5.40
2018-07-20T23:54:50.766Z,5.80
2018-07-20T23:57:19.463Z,5.83
2018-07-20T23:59:48.396Z,6.20
